Terminal Aerodrome Forecast
Issued by NWS Wilmington, OH

Current Version | Previous Version | Graphics & Text | Print | Product List | Glossary On
Versions: 1 2 3 4 5 6 7 8 9 10 11 12 13 14 15 16 17 18 19 20 21 22
216
FTUS41 KILN 250540
TAFCVG
TAF
KCVG 250540Z 2506/2612 18004KT P6SM FEW070 SCT250
     FM251100 19005KT P6SM VCSH BKN040
     FM251700 17010KT P6SM BKN050
     FM260100 17005KT P6SM SCT050=

USA.gov is the U.S. government's official web portal to all federal, state and local government web resources and services.